Time;durP1;ratioP1;P1;durP2;ratioP2;P2;SDS_P1;SDS_P2;PMS_P1;PMS_P2;Temp;Humidity;BMP_temperature;BMP_pressure;BME280_temperature;BME280_humidity;BME280_pressure;Samples;Min_cycle;Max_cycle;Signal;HPM_P1;HPM_P2
2022/06/23 00:03:35;;;;;;;5.03;3.20;;;19.80;99.90;;;;;;5011478;28;20472;-81
2022/06/23 00:06:06;;;;;;;4.60;3.07;;;19.80;99.90;;;;;;5016740;28;20423;-81
2022/06/23 00:08:42;;;;;;;4.70;3.00;;;19.80;99.90;;;;;;5011091;28;20427;-81
2022/06/23 00:11:22;;;;;;;6.63;3.20;;;19.80;99.90;;;;;;5010885;28;20424;-80
2022/06/23 00:13:49;;;;;;;4.30;2.73;;;19.70;99.90;;;;;;5012372;28;20789;-81
2022/06/23 00:16:23;;;;;;;6.20;3.40;;;19.70;99.90;;;;;;5011592;28;20456;-81
2022/06/23 00:18:49;;;;;;;7.00;3.47;;;19.70;99.90;;;;;;5012247;28;21117;-80
2022/06/23 00:21:43;;;;;;;4.40;3.23;;;19.70;99.90;;;;;;5012178;28;20435;-80
2022/06/23 00:24:19;;;;;;;4.63;3.00;;;19.60;99.90;;;;;;5011034;28;20189;-80
2022/06/23 00:26:45;;;;;;;4.63;3.10;;;19.60;99.90;;;;;;5011769;28;20392;-80
2022/06/23 00:29:15;;;;;;;4.00;2.83;;;19.60;99.90;;;;;;5012039;28;20856;-80
2022/06/23 00:31:42;;;;;;;4.60;3.23;;;19.50;99.90;;;;;;5017183;28;20197;-81
2022/06/23 00:34:25;;;;;;;7.57;3.00;;;19.60;99.90;;;;;;5018421;28;20791;-81
2022/06/23 00:36:54;;;;;;;4.83;3.13;;;19.60;99.90;;;;;;5018116;28;20451;-81
2022/06/23 00:39:38;;;;;;;7.10;3.43;;;19.60;99.90;;;;;;5018564;28;20416;-80
2022/06/23 00:42:23;;;;;;;5.80;2.70;;;19.60;99.90;;;;;;5017274;28;20954;-80
2022/06/23 00:45:28;;;;;;;4.10;2.93;;;19.60;99.90;;;;;;5018468;28;20506;-81
2022/06/23 00:47:58;;;;;;;4.60;3.30;;;19.50;99.90;;;;;;5012023;28;20588;-80
2022/06/23 00:50:47;;;;;;;4.20;2.73;;;19.50;99.90;;;;;;5018435;28;20411;-80
2022/06/23 00:53:12;;;;;;;4.23;3.03;;;19.50;99.90;;;;;;5018306;28;20441;-80
2022/06/23 00:56:12;;;;;;;4.43;3.10;;;19.50;99.90;;;;;;5016459;28;20415;-80
2022/06/23 00:58:57;;;;;;;8.10;3.20;;;19.50;99.90;;;;;;5018397;28;20181;-80
2022/06/23 01:01:34;;;;;;;3.47;2.77;;;19.50;99.90;;;;;;5018017;28;20843;-81
2022/06/23 01:04:03;;;;;;;5.73;3.67;;;19.50;99.90;;;;;;5018361;28;20446;-80
2022/06/23 01:06:48;;;;;;;3.70;2.70;;;19.50;99.90;;;;;;5017938;28;20444;-80
2022/06/23 01:09:35;;;;;;;4.63;2.80;;;19.40;99.90;;;;;;5018195;28;20411;-80
2022/06/23 01:12:06;;;;;;;5.53;3.20;;;19.40;99.90;;;;;;5018113;28;20439;-80
2022/06/23 01:14:52;;;;;;;4.07;3.17;;;19.30;99.90;;;;;;5018319;28;20415;-80
2022/06/23 01:17:24;;;;;;;5.37;3.57;;;19.20;99.90;;;;;;5016408;28;20463;-80
2022/06/23 01:20:18;;;;;;;4.90;3.20;;;19.20;99.90;;;;;;5017901;28;20407;-81
2022/06/23 01:22:52;;;;;;;4.60;3.70;;;19.20;99.90;;;;;;5017958;28;21009;-81
2022/06/23 01:25:34;;;;;;;4.07;2.90;;;19.20;99.90;;;;;;5018120;28;20410;-80
2022/06/23 01:28:07;;;;;;;3.90;3.10;;;19.20;99.90;;;;;;5017913;28;20388;-81
2022/06/23 01:30:38;;;;;;;5.37;3.10;;;19.10;99.90;;;;;;5016764;28;20837;-80
2022/06/23 01:33:22;;;;;;;4.50;2.80;;;19.10;99.90;;;;;;5018035;28;20423;-80
2022/06/23 01:36:04;;;;;;;4.40;3.37;;;19.00;99.90;;;;;;5017684;28;20795;-80
2022/06/23 01:38:38;;;;;;;4.27;3.47;;;19.00;99.90;;;;;;5017843;28;20416;-80
2022/06/23 01:41:19;;;;;;;5.03;3.47;;;18.90;99.90;;;;;;5016696;28;20448;-80
2022/06/23 01:43:52;;;;;;;4.50;3.50;;;19.00;99.90;;;;;;5013787;28;20424;-80
2022/06/23 01:46:33;;;;;;;5.30;3.20;;;18.90;99.90;;;;;;5014499;28;20583;-80
2022/06/23 01:49:05;;;;;;;4.83;3.23;;;18.90;99.90;;;;;;5014553;28;21083;-80
2022/06/23 01:51:35;;;;;;;4.87;3.27;;;18.90;99.90;;;;;;5014654;28;20444;-80
2022/06/23 01:54:26;;;;;;;8.03;3.80;;;18.90;99.90;;;;;;5013207;28;20424;-80
2022/06/23 01:57:09;;;;;;;4.47;3.50;;;18.90;99.90;;;;;;5008901;28;20880;-80
2022/06/23 02:00:08;;;;;;;3.83;3.00;;;18.90;99.90;;;;;;5013278;28;20424;-81
2022/06/23 02:03:09;;;;;;;4.20;2.93;;;18.90;99.90;;;;;;5015083;28;20459;-81
2022/06/23 02:05:41;;;;;;;5.77;3.60;;;18.90;99.90;;;;;;5007847;28;20527;-80
2022/06/23 02:08:19;;;;;;;6.03;3.60;;;18.90;99.90;;;;;;5015435;28;20400;-81
2022/06/23 02:11:06;;;;;;;5.57;3.70;;;18.90;99.90;;;;;;5014389;28;20412;-80
2022/06/23 02:13:41;;;;;;;5.43;3.70;;;18.90;99.90;;;;;;5014715;28;20415;-81
2022/06/23 02:16:30;;;;;;;5.67;3.63;;;18.90;99.90;;;;;;5014065;28;20473;-80
2022/06/23 02:19:03;;;;;;;5.27;3.40;;;18.90;99.90;;;;;;5027174;28;20444;-80
2022/06/23 02:21:39;;;;;;;4.67;3.20;;;19.00;99.90;;;;;;5019883;28;20436;-81
2022/06/23 02:24:13;;;;;;;5.03;3.27;;;18.90;99.90;;;;;;5017461;28;20419;-81
2022/06/23 02:26:56;;;;;;;4.23;3.47;;;18.90;99.90;;;;;;5014882;28;20432;-81
2022/06/23 02:29:46;;;;;;;6.37;3.70;;;18.90;99.90;;;;;;5017533;28;20432;-81
2022/06/23 02:32:25;;;;;;;7.23;4.17;;;18.80;99.90;;;;;;5009155;28;20448;-81
2022/06/23 02:35:41;;;;;;;4.07;3.67;;;18.80;99.90;;;;;;5016938;28;20411;-81
2022/06/23 02:38:29;;;;;;;5.37;3.53;;;18.70;99.90;;;;;;5012710;28;20975;-80
2022/06/23 02:41:18;;;;;;;4.93;4.00;;;18.80;99.90;;;;;;5013921;28;20412;-80
2022/06/23 02:44:13;;;;;;;4.63;3.53;;;18.70;99.90;;;;;;5013933;28;20782;-80
2022/06/23 02:46:45;;;;;;;4.57;3.47;;;18.60;99.90;;;;;;5012281;28;20412;-80
2022/06/23 02:49:41;;;;;;;5.27;3.77;;;18.60;99.90;;;;;;5013590;28;20826;-80
2022/06/23 02:52:48;;;;;;;5.10;3.17;;;18.60;99.90;;;;;;5013569;28;20468;-80
2022/06/23 02:55:45;;;;;;;5.50;3.17;;;18.50;99.90;;;;;;5013301;28;20515;-81
2022/06/23 02:58:21;;;;;;;5.60;3.63;;;18.40;99.90;;;;;;5013467;28;20423;-80
2022/06/23 03:01:06;;;;;;;4.40;3.90;;;18.40;99.90;;;;;;5012265;28;20404;-81
2022/06/23 03:03:52;;;;;;;6.50;3.70;;;18.40;99.90;;;;;;5011926;28;20483;-80
2022/06/23 03:06:22;;;;;;;5.03;3.50;;;18.40;99.90;;;;;;5011841;28;20802;-80
2022/06/23 03:09:02;;;;;;;5.73;3.30;;;18.30;99.90;;;;;;5012015;28;20482;-80
2022/06/23 03:11:52;;;;;;;4.87;3.67;;;18.40;99.90;;;;;;5013307;28;20436;-80
2022/06/23 03:14:36;;;;;;;4.07;3.67;;;18.40;99.90;;;;;;5013194;28;20408;-80
2022/06/23 03:17:18;;;;;;;5.40;4.10;;;18.40;99.90;;;;;;5012887;28;21072;-80
2022/06/23 03:20:12;;;;;;;6.87;4.80;;;18.40;99.90;;;;;;5013273;28;20446;-81
2022/06/23 03:22:57;;;;;;;4.63;3.70;;;18.40;99.90;;;;;;5012791;28;20431;-80
2022/06/23 03:25:47;;;;;;;5.50;3.57;;;18.40;99.90;;;;;;5013056;28;20411;-80
2022/06/23 03:28:25;;;;;;;6.47;3.70;;;18.40;99.90;;;;;;5013110;28;20492;-80
2022/06/23 03:31:24;;;;;;;5.33;3.77;;;18.40;99.90;;;;;;5012883;28;20423;-81
2022/06/23 03:34:12;;;;;;;4.47;3.07;;;18.40;99.90;;;;;;5011750;28;20443;-81
2022/06/23 03:36:46;;;;;;;5.07;3.43;;;18.50;99.90;;;;;;5012461;28;20487;-80
2022/06/23 03:42:15;;;;;;;6.37;4.10;;;18.50;99.90;;;;;;5015190;28;20518;-81
2022/06/23 03:44:44;;;;;;;5.37;3.53;;;18.60;99.90;;;;;;5015135;28;20418;-80
2022/06/23 03:47:22;;;;;;;6.23;3.77;;;18.60;99.90;;;;;;5014394;28;20416;-81
2022/06/23 03:49:54;;;;;;;6.20;3.57;;;18.60;99.90;;;;;;5014974;28;20459;-82
2022/06/23 03:52:33;;;;;;;6.00;3.67;;;18.70;99.90;;;;;;5014640;28;21024;-81
2022/06/23 03:55:17;;;;;;;8.53;3.70;;;18.70;99.90;;;;;;5013269;28;20455;-81
2022/06/23 03:57:55;;;;;;;5.07;3.03;;;18.70;99.90;;;;;;5014120;28;20942;-81
2022/06/23 04:00:35;;;;;;;5.20;4.13;;;18.80;99.90;;;;;;5014658;28;20511;-81
2022/06/23 04:03:25;;;;;;;5.70;3.70;;;18.80;99.90;;;;;;5013272;28;20491;-80
2022/06/23 04:05:56;;;;;;;5.80;3.40;;;18.90;99.90;;;;;;5013932;28;20416;-81
2022/06/23 04:08:26;;;;;;;4.70;3.77;;;18.90;99.90;;;;;;5014192;28;20806;-81
2022/06/23 04:10:54;;;;;;;6.43;3.70;;;19.00;99.90;;;;;;5014543;28;20420;-81
2022/06/23 04:13:34;;;;;;;5.20;3.37;;;19.10;99.90;;;;;;5013814;28;20418;-81
2022/06/23 04:16:08;;;;;;;4.60;3.77;;;19.10;99.90;;;;;;5013726;28;20910;-81
2022/06/23 04:18:42;;;;;;;5.00;3.23;;;19.20;99.90;;;;;;5014053;28;20415;-81
2022/06/23 04:21:16;;;;;;;6.70;3.63;;;19.20;99.90;;;;;;5014063;28;20408;-81
2022/06/23 04:23:57;;;;;;;6.67;4.63;;;19.30;99.90;;;;;;5014293;28;20823;-80
2022/06/23 04:26:32;;;;;;;5.90;3.30;;;19.40;99.90;;;;;;5013150;28;20416;-81
2022/06/23 04:29:26;;;;;;;6.63;3.60;;;19.50;99.90;;;;;;5013141;28;20938;-81
2022/06/23 04:31:59;;;;;;;6.77;4.30;;;19.60;99.90;;;;;;5012232;28;20456;-81
2022/06/23 04:34:29;;;;;;;4.50;3.47;;;19.70;99.90;;;;;;5011704;28;20957;-81
2022/06/23 04:36:56;;;;;;;6.60;4.17;;;19.70;99.90;;;;;;5012515;28;20981;-81
2022/06/23 04:39:29;;;;;;;4.87;3.60;;;19.80;99.90;;;;;;5012782;28;20428;-81
2022/06/23 04:42:20;;;;;;;5.93;3.70;;;19.90;99.90;;;;;;5012569;28;20458;-81
2022/06/23 04:44:51;;;;;;;6.20;3.50;;;19.90;99.90;;;;;;5012814;28;20396;-81
2022/06/23 04:47:27;;;;;;;4.90;3.27;;;20.00;99.90;;;;;;5012458;28;20416;-81
2022/06/23 04:50:01;;;;;;;7.77;4.40;;;20.10;99.90;;;;;;5011488;28;20420;-81
2022/06/23 04:52:34;;;;;;;4.43;3.20;;;20.20;99.90;;;;;;5012392;28;20631;-81
2022/06/23 04:55:13;;;;;;;4.10;3.00;;;20.20;99.90;;;;;;5011444;28;20428;-81
2022/06/23 04:57:51;;;;;;;3.60;2.73;;;20.40;99.90;;;;;;5010659;28;20459;-81
2022/06/23 05:00:43;;;;;;;4.30;3.07;;;20.50;99.90;;;;;;5012580;28;20451;-81
2022/06/23 05:03:30;;;;;;;3.90;3.00;;;20.60;99.90;;;;;;5010726;28;20456;-82
2022/06/23 05:06:19;;;;;;;6.30;3.33;;;20.70;99.90;;;;;;5011843;28;20404;-81
2022/06/23 05:08:47;;;;;;;3.87;2.83;;;20.80;99.90;;;;;;5012184;28;20401;-81
2022/06/23 05:11:40;;;;;;;4.07;2.70;;;20.90;99.90;;;;;;5012492;28;20455;-81
2022/06/23 05:14:42;;;;;;;10.50;3.10;;;21.00;99.90;;;;;;5012104;28;20927;-81
2022/06/23 05:17:19;;;;;;;4.40;2.80;;;21.10;99.90;;;;;;5005293;28;20529;-81
2022/06/23 05:19:46;;;;;;;4.97;3.00;;;21.20;99.90;;;;;;5015864;28;20396;-81
2022/06/23 05:22:23;;;;;;;3.77;2.83;;;21.30;99.90;;;;;;5015815;28;20435;-81
2022/06/23 05:24:49;;;;;;;4.37;3.10;;;21.40;99.90;;;;;;5015975;28;20827;-81
2022/06/23 05:27:27;;;;;;;5.13;3.03;;;21.50;99.90;;;;;;5015435;28;20428;-81
2022/06/23 05:29:58;;;;;;;4.40;2.90;;;21.50;99.90;;;;;;5015186;28;20412;-81
2022/06/23 05:32:41;;;;;;;5.37;2.93;;;21.70;99.90;;;;;;5015198;28;20446;-81
2022/06/23 05:35:14;;;;;;;4.47;2.87;;;21.80;99.90;;;;;;5015112;28;20404;-81
2022/06/23 05:37:42;;;;;;;5.27;3.40;;;21.90;99.90;;;;;;5014666;28;20455;-81
2022/06/23 05:40:34;;;;;;;6.70;4.03;;;21.90;99.90;;;;;;5014843;28;20915;-81
2022/06/23 05:43:02;;;;;;;7.07;3.33;;;22.00;99.90;;;;;;5014956;28;20424;-81
2022/06/23 05:45:46;;;;;;;5.53;3.43;;;22.10;99.90;;;;;;5014782;28;20506;-81
2022/06/23 05:48:17;;;;;;;5.13;3.33;;;22.20;99.90;;;;;;5014935;28;20412;-81
2022/06/23 05:51:06;;;;;;;8.60;3.40;;;22.30;99.90;;;;;;5014857;28;20412;-81
2022/06/23 05:53:38;;;;;;;4.40;3.20;;;22.30;99.90;;;;;;5014759;28;20735;-81
2022/06/23 05:56:16;;;;;;;5.07;3.13;;;22.40;99.90;;;;;;5014052;28;20427;-81
2022/06/23 05:59:05;;;;;;;6.43;3.90;;;22.50;99.90;;;;;;5014509;28;20404;-81
2022/06/23 06:04:18;;;;;;;7.20;3.73;;;22.60;99.90;;;;;;5029614;28;20475;-84
2022/06/23 06:06:45;;;;;;;4.80;3.97;;;22.60;99.90;;;;;;5032939;28;20408;-83
2022/06/23 06:12:00;;;;;;;7.03;3.67;;;22.80;99.90;;;;;;5034345;28;20853;-85
2022/06/23 06:14:30;;;;;;;4.90;3.27;;;22.90;99.90;;;;;;5032978;28;20423;-83
2022/06/23 06:16:57;;;;;;;4.73;3.50;;;23.00;99.90;;;;;;5032758;28;20476;-84
2022/06/23 06:19:24;;;;;;;4.57;3.47;;;23.00;99.90;;;;;;5032940;28;20427;-83
2022/06/23 06:21:54;;;;;;;6.50;3.70;;;23.10;99.90;;;;;;5032882;28;20812;-84
2022/06/23 06:24:36;;;;;;;8.53;4.17;;;23.20;99.90;;;;;;5032967;28;20407;-84
2022/06/23 06:27:03;;;;;;;7.13;4.17;;;23.20;99.90;;;;;;5033852;28;20414;-83
2022/06/23 06:29:37;;;;;;;5.50;4.10;;;23.30;99.90;;;;;;5032150;28;20430;-84
2022/06/23 06:32:19;;;;;;;9.50;3.90;;;23.40;99.90;;;;;;5033616;28;20448;-84
2022/06/23 06:34:53;;;;;;;5.60;3.77;;;23.50;99.90;;;;;;5032532;28;20527;-83
2022/06/23 06:37:22;;;;;;;8.50;4.73;;;23.60;99.90;;;;;;5033619;28;20439;-84
2022/06/23 06:39:53;;;;;;;5.90;4.30;;;23.60;99.90;;;;;;5032560;28;20459;-83
2022/06/23 06:42:27;;;;;;;4.97;3.67;;;23.70;99.90;;;;;;5033758;28;20439;-83
2022/06/23 06:44:55;;;;;;;6.73;3.30;;;23.80;99.90;;;;;;5032410;28;20468;-84
2022/06/23 06:47:28;;;;;;;6.23;3.87;;;23.90;99.90;;;;;;5033144;28;20431;-84
2022/06/23 06:49:57;;;;;;;6.30;3.33;;;24.10;99.90;;;;;;5032139;28;20484;-83
2022/06/23 06:52:23;;;;;;;5.30;4.57;;;24.20;99.90;;;;;;5033380;28;20443;-83
2022/06/23 06:55:06;;;;;;;7.40;3.90;;;24.20;99.90;;;;;;5032310;28;20454;-84
2022/06/23 06:57:41;;;;;;;5.40;3.80;;;24.20;99.90;;;;;;5031655;28;20505;-84
2022/06/23 07:00:18;;;;;;;8.70;4.30;;;24.30;99.90;;;;;;5033372;28;20431;-82
2022/06/23 07:02:52;;;;;;;4.60;3.70;;;24.40;99.90;;;;;;5031948;28;20599;-84
2022/06/23 07:05:41;;;;;;;7.87;4.07;;;24.40;99.90;;;;;;5033171;28;20490;-83
2022/06/23 07:08:14;;;;;;;6.20;3.80;;;24.50;99.90;;;;;;5031879;28;20419;-84
2022/06/23 07:10:48;;;;;;;5.80;3.90;;;24.60;99.90;;;;;;5032926;28;20446;-84
2022/06/23 07:13:21;;;;;;;4.43;3.73;;;24.70;99.90;;;;;;5032977;28;20434;-84
2022/06/23 07:15:55;;;;;;;9.93;4.47;;;24.80;99.90;;;;;;5031341;28;20419;-83
2022/06/23 07:18:31;;;;;;;6.47;4.03;;;24.90;99.90;;;;;;5031533;28;20479;-84
2022/06/23 07:21:26;;;;;;;11.47;4.70;;;25.10;99.90;;;;;;5031646;28;20411;-84
2022/06/23 07:23:59;;;;;;;5.80;3.67;;;25.20;99.90;;;;;;5030932;28;20412;-84
2022/06/23 07:26:40;;;;;;;5.50;3.70;;;25.30;99.90;;;;;;5030806;28;20419;-86
2022/06/23 07:29:29;;;;;;;5.97;4.23;;;25.60;99.90;;;;;;5013409;28;20443;-87
2022/06/23 07:32:00;;;;;;;4.80;4.30;;;25.60;99.90;;;;;;5017521;28;20443;-88
2022/06/23 07:34:29;;;;;;;6.97;4.07;;;25.70;99.90;;;;;;5031573;28;20426;-85
2022/06/23 07:36:58;;;;;;;8.30;4.63;;;25.80;99.90;;;;;;5031313;28;20510;-83
2022/06/23 07:39:33;;;;;;;8.57;5.37;;;25.90;99.90;;;;;;5028489;28;20850;-84
2022/06/23 07:42:10;;;;;;;5.90;4.30;;;25.90;99.90;;;;;;5032120;28;20442;-85
2022/06/23 07:44:54;;;;;;;8.53;4.10;;;26.00;99.90;;;;;;5031807;28;20434;-84
2022/06/23 07:47:22;;;;;;;6.53;4.60;;;26.10;99.90;;;;;;5030890;28;20434;-87
2022/06/23 07:49:48;;;;;;;6.93;4.00;;;26.10;99.90;;;;;;5032094;28;20914;-83
2022/06/23 07:52:19;;;;;;;9.50;5.33;;;26.20;99.90;;;;;;5030728;28;20479;-86
2022/06/23 07:54:48;;;;;;;7.37;4.30;;;26.30;99.90;;;;;;5031139;28;20192;-86
2022/06/23 07:57:15;;;;;;;7.77;4.60;;;26.30;99.90;;;;;;5031564;28;20488;-85
2022/06/23 07:59:52;;;;;;;8.70;4.27;;;26.40;99.90;;;;;;5031126;28;20510;-85
2022/06/23 08:02:35;;;;;;;6.03;4.50;;;26.50;99.90;;;;;;5030437;28;20976;-86
2022/06/23 08:05:16;;;;;;;4.20;3.80;;;26.50;99.90;;;;;;5032124;28;20396;-85
2022/06/23 08:07:42;;;;;;;5.40;3.90;;;26.60;99.90;;;;;;5030805;28;20484;-87
2022/06/23 08:10:38;;;;;;;4.87;4.10;;;26.80;99.90;;;;;;5032003;28;20414;-86
2022/06/23 08:13:20;;;;;;;7.17;4.60;;;26.80;99.90;;;;;;5027637;28;20546;-84
2022/06/23 08:18:59;;;;;;;6.27;4.30;;;29.00;99.90;;;;;;5031778;28;20985;-84
2022/06/23 08:21:46;;;;;;;7.20;3.83;;;30.00;99.90;;;;;;5031803;28;20408;-86
2022/06/23 08:24:14;;;;;;;5.30;4.40;;;30.90;99.90;;;;;;5030594;28;20403;-85
2022/06/23 08:26:53;;;;;;;5.73;3.90;;;31.50;99.90;;;;;;5030315;28;20910;-84
2022/06/23 08:29:23;;;;;;;6.70;4.40;;;32.00;99.90;;;;;;5030251;28;20417;-85
2022/06/23 08:31:48;;;;;;;8.40;5.00;;;32.60;99.90;;;;;;5030430;28;20474;-86
2022/06/23 08:34:14;;;;;;;7.80;4.47;;;33.50;99.90;;;;;;5030393;28;20513;-85
2022/06/23 08:36:47;;;;;;;6.23;4.43;;;33.50;99.90;;;;;;5029923;28;20200;-83
2022/06/23 08:39:25;;;;;;;5.83;4.50;;;34.00;97.70;;;;;;5026530;28;20185;-85
2022/06/23 08:42:09;;;;;;;8.40;4.60;;;34.40;95.40;;;;;;5014980;28;20457;-84
2022/06/23 08:44:45;;;;;;;6.30;4.00;;;34.50;90.20;;;;;;5020211;28;20438;-88
2022/06/23 08:47:40;;;;;;;7.23;4.70;;;34.70;89.70;;;;;;5011517;28;20483;-86
2022/06/23 08:50:17;;;;;;;6.83;4.20;;;35.50;91.10;;;;;;5010678;28;20424;-89
2022/06/23 08:53:05;;;;;;;5.73;4.87;;;36.10;82.20;;;;;;5042124;28;20995;-86
2022/06/23 08:55:54;;;;;;;6.77;5.57;;;35.90;78.10;;;;;;5034467;28;20422;-87
2022/06/23 08:58:53;;;;;;;5.57;4.43;;;37.00;74.10;;;;;;5034458;28;20454;-86
2022/06/23 09:01:33;;;;;;;6.13;4.10;;;37.30;74.40;;;;;;5032155;28;20498;-86
2022/06/23 09:04:29;;;;;;;6.37;4.53;;;38.40;63.50;;;;;;5015899;28;20408;-86
2022/06/23 09:07:12;;;;;;;6.90;4.70;;;38.70;60.60;;;;;;5030627;28;20789;-84
2022/06/23 09:09:50;;;;;;;8.33;4.70;;;38.90;58.70;;;;;;5014262;28;20914;-85
2022/06/23 09:12:34;;;;;;;5.70;3.80;;;39.20;57.30;;;;;;5015708;28;20427;-83
2022/06/23 09:15:25;;;;;;;7.43;4.50;;;39.80;53.80;;;;;;5014731;28;20493;-85
2022/06/23 09:18:07;;;;;;;5.40;3.80;;;40.30;52.50;;;;;;5013895;28;20451;-85
2022/06/23 09:20:36;;;;;;;5.60;4.40;;;40.40;51.50;;;;;;5013985;28;20507;-83
2022/06/23 09:23:30;;;;;;;4.67;4.17;;;40.70;48.90;;;;;;5015526;28;20509;-86
2022/06/23 09:26:09;;;;;;;5.30;4.30;;;40.90;49.40;;;;;;5013698;28;20411;-86
2022/06/23 09:28:53;;;;;;;6.40;4.00;;;40.90;46.60;;;;;;5013969;28;20414;-86
2022/06/23 09:31:47;;;;;;;6.77;4.10;;;41.80;45.90;;;;;;5015136;28;20431;-84
2022/06/23 09:34:44;;;;;;;7.13;3.60;;;42.20;47.40;;;;;;5013998;28;20416;-87
2022/06/23 09:37:31;;;;;;;5.57;4.20;;;42.30;43.70;;;;;;5013027;28;20184;-88
2022/06/23 09:40:12;;;;;;;4.73;4.27;;;42.30;44.50;;;;;;5013877;28;20259;-89
2022/06/23 09:43:14;;;;;;;4.43;3.93;;;42.50;41.80;;;;;;5015460;28;20218;-89
2022/06/23 09:45:52;;;;;;;5.10;4.10;;;42.00;42.60;;;;;;5020362;28;20172;-84
2022/06/23 09:48:41;;;;;;;6.33;3.77;;;42.10;41.40;;;;;;5018483;28;20483;-85
2022/06/23 09:51:30;;;;;;;4.50;3.70;;;42.50;41.40;;;;;;5015152;28;20181;-91
2022/06/23 09:54:17;;;;;;;4.53;3.80;;;43.10;41.20;;;;;;5015540;28;20176;-83
2022/06/23 09:57:07;;;;;;;4.60;3.97;;;43.10;39.00;;;;;;5017508;28;20622;-87
2022/06/23 10:00:00;;;;;;;4.43;3.95;;;43.40;38.90;;;;;;5029975;28;20856;-89
2022/06/23 10:02:44;;;;;;;9.02;4.72;;;44.30;39.60;;;;;;5023359;28;20215;-87
2022/06/23 10:05:30;;;;;;;3.75;3.05;;;44.60;38.00;;;;;;5033062;28;20187;-86
2022/06/23 10:08:20;;;;;;;7.18;4.20;;;44.50;36.90;;;;;;5033417;28;20283;-87
2022/06/23 10:11:06;;;;;;;4.88;3.63;;;44.50;36.40;;;;;;5032917;28;20266;-89
2022/06/23 10:14:10;;;;;;;4.68;4.25;;;44.90;36.40;;;;;;5033156;28;20199;-87
2022/06/23 10:16:46;;;;;;;6.55;3.80;;;45.50;35.70;;;;;;4973006;28;20325;-87
2022/06/23 10:19:21;;;;;;;6.95;4.07;;;46.20;36.00;;;;;;5022538;28;20218;-86
2022/06/23 10:21:57;;;;;;;5.57;3.90;;;46.40;33.30;;;;;;5033890;28;20195;-89
2022/06/23 10:24:43;;;;;;;4.40;3.33;;;46.00;33.20;;;;;;5033048;28;20163;-86
2022/06/23 10:27:29;;;;;;;5.00;3.85;;;45.90;33.50;;;;;;5032288;28;20199;-86
2022/06/23 10:30:07;;;;;;;4.75;3.30;;;44.90;33.50;;;;;;5032842;28;20164;-87
2022/06/23 10:32:55;;;;;;;5.00;3.95;;;45.00;33.80;;;;;;5032879;28;20195;-85
2022/06/23 10:35:52;;;;;;;3.85;3.40;;;45.50;33.20;;;;;;5033467;28;20679;-85
2022/06/23 10:38:52;;;;;;;4.95;3.85;;;45.40;33.30;;;;;;5033071;28;20172;-84
2022/06/23 10:41:24;;;;;;;4.22;3.75;;;44.80;32.80;;;;;;5034023;28;20172;-85
2022/06/23 10:44:15;;;;;;;5.53;3.72;;;43.90;34.20;;;;;;5034367;28;20195;-85
2022/06/23 10:46:51;;;;;;;4.60;3.88;;;42.80;34.10;;;;;;5032436;28;20210;-85
2022/06/23 10:49:42;;;;;;;4.27;3.60;;;42.10;35.20;;;;;;5032949;28;20183;-85
2022/06/23 10:52:50;;;;;;;5.43;3.93;;;41.00;35.40;;;;;;5028900;28;20200;-85
2022/06/23 10:55:36;;;;;;;7.30;3.50;;;40.00;35.40;;;;;;5007044;28;20437;-85
2022/06/23 10:58:25;;;;;;;5.03;4.10;;;38.90;36.90;;;;;;5038244;28;20472;-87
2022/06/23 11:00:59;;;;;;;5.30;3.60;;;38.50;37.80;;;;;;5032385;28;21000;-85
2022/06/23 11:03:37;;;;;;;5.97;3.83;;;37.70;40.00;;;;;;5033049;28;20469;-86
2022/06/23 11:06:15;;;;;;;4.50;2.97;;;37.60;40.60;;;;;;5032804;28;20407;-86
2022/06/23 11:08:55;;;;;;;4.57;3.50;;;37.30;39.80;;;;;;5033488;28;20411;-87
2022/06/23 11:11:35;;;;;;;5.60;3.73;;;36.90;40.40;;;;;;5031547;28;20498;-87
2022/06/23 11:14:30;;;;;;;5.50;4.30;;;37.30;42.00;;;;;;5032468;28;20415;-87
2022/06/23 11:17:21;;;;;;;4.47;3.73;;;37.50;40.20;;;;;;5014936;28;20459;-91
2022/06/23 11:20:19;;;;;;;5.47;4.00;;;37.10;41.30;;;;;;5032131;28;20429;-89
2022/06/23 11:22:52;;;;;;;5.17;3.43;;;36.20;42.20;;;;;;5032016;28;20801;-89
2022/06/23 11:25:50;;;;;;;5.73;4.00;;;36.10;42.60;;;;;;5032133;28;20411;-88
2022/06/23 11:28:28;;;;;;;6.83;5.27;;;36.30;44.00;;;;;;5031848;28;20477;-86
2022/06/23 11:31:25;;;;;;;5.00;3.87;;;36.50;44.30;;;;;;5031726;28;20427;-89
2022/06/23 11:34:11;;;;;;;5.10;3.67;;;35.90;44.00;;;;;;5031791;28;20419;-89
2022/06/23 11:36:49;;;;;;;4.80;3.60;;;35.60;44.60;;;;;;5031411;28;20473;-89
2022/06/23 11:39:24;;;;;;;6.73;4.20;;;35.30;45.10;;;;;;5031660;28;20423;-89
2022/06/23 11:42:11;;;;;;;4.77;3.17;;;35.00;44.50;;;;;;5031288;28;20454;-88
2022/06/23 11:44:47;;;;;;;5.50;3.90;;;34.90;45.70;;;;;;5031776;28;20431;-89
2022/06/23 11:47:25;;;;;;;6.27;4.43;;;34.60;45.30;;;;;;5030721;28;20454;-89
2022/06/23 11:49:51;;;;;;;4.63;3.70;;;34.50;47.50;;;;;;5031518;28;20445;-88
2022/06/23 11:52:40;;;;;;;8.20;4.00;;;34.30;46.40;;;;;;5031915;28;20442;-89
2022/06/23 11:55:35;;;;;;;5.27;3.43;;;34.10;46.10;;;;;;5033095;28;20160;-89
2022/06/23 11:58:37;;;;;;;6.77;3.80;;;34.00;47.50;;;;;;5031838;28;20441;-88
2022/06/23 12:01:15;;;;;;;4.80;4.03;;;33.90;48.10;;;;;;5031639;28;20415;-87
2022/06/23 12:03:56;;;;;;;6.60;3.90;;;33.80;48.40;;;;;;5031488;28;20445;-85
2022/06/23 12:06:31;;;;;;;6.00;4.23;;;33.70;47.80;;;;;;5038121;28;20451;-86
2022/06/23 12:09:00;;;;;;;5.23;4.07;;;33.90;48.10;;;;;;5046466;28;20493;-86
2022/06/23 12:11:36;;;;;;;5.23;3.40;;;34.00;49.20;;;;;;5049526;28;20407;-86
2022/06/23 12:14:07;;;;;;;7.50;4.43;;;34.10;49.40;;;;;;5051934;28;20429;-85
2022/06/23 12:16:40;;;;;;;5.10;3.37;;;34.10;48.90;;;;;;5049892;28;20419;-86
2022/06/23 12:19:10;;;;;;;7.77;3.73;;;34.00;51.10;;;;;;5045460;28;20415;-86
2022/06/23 12:22:07;;;;;;;5.00;3.97;;;34.10;48.50;;;;;;5040441;28;20475;-86
2022/06/23 12:24:46;;;;;;;4.60;3.77;;;34.20;49.10;;;;;;5039510;28;20518;-85
2022/06/23 12:27:25;;;;;;;5.70;4.43;;;34.00;47.80;;;;;;5032786;28;20455;-85
2022/06/23 12:30:10;;;;;;;4.90;3.83;;;33.90;48.50;;;;;;5031184;28;20416;-84
2022/06/23 12:32:52;;;;;;;6.10;4.03;;;33.60;48.50;;;;;;5031768;28;20469;-84
2022/06/23 12:35:52;;;;;;;5.43;4.47;;;33.60;49.90;;;;;;5024379;28;20434;-84
2022/06/23 12:38:32;;;;;;;6.20;3.90;;;33.90;51.10;;;;;;5025982;28;20453;-86
2022/06/23 12:41:15;;;;;;;3.90;3.40;;;34.20;48.70;;;;;;5025862;28;20454;-86
2022/06/23 12:43:56;;;;;;;4.20;3.70;;;34.30;50.30;;;;;;5029833;28;20404;-86
2022/06/23 12:46:41;;;;;;;7.57;4.30;;;34.40;49.10;;;;;;5027306;28;20505;-83
2022/06/23 12:49:18;;;;;;;5.67;3.87;;;34.40;48.60;;;;;;5029843;28;20404;-87
2022/06/23 12:51:59;;;;;;;4.50;3.90;;;34.30;48.30;;;;;;5025348;28;20431;-84
2022/06/23 12:54:49;;;;;;;5.00;3.57;;;34.20;49.20;;;;;;5031334;28;20403;-85
2022/06/23 12:57:40;;;;;;;5.00;3.30;;;34.20;49.00;;;;;;5032696;28;20405;-84
2022/06/23 13:00:14;;;;;;;5.50;4.13;;;34.20;47.80;;;;;;5024065;28;20429;-85
2022/06/23 13:03:36;;;;;;;5.73;4.00;;;34.20;48.80;;;;;;5026050;28;20486;-86
2022/06/23 13:06:27;;;;;;;5.33;3.43;;;34.20;48.60;;;;;;4947394;29;20435;-84
2022/06/23 13:09:17;;;;;;;5.93;3.57;;;34.20;50.80;;;;;;4945786;29;20418;-85
2022/06/23 13:12:05;;;;;;;6.23;4.23;;;34.30;49.90;;;;;;5019762;28;20440;-85
2022/06/23 13:14:44;;;;;;;6.50;3.90;;;34.40;49.00;;;;;;5019007;28;20977;-86
2022/06/23 13:17:25;;;;;;;4.70;3.90;;;34.20;50.00;;;;;;5028406;28;20427;-86
2022/06/23 13:20:08;;;;;;;4.77;3.53;;;34.40;50.60;;;;;;5030060;28;20450;-86
2022/06/23 13:23:11;;;;;;;5.53;3.77;;;34.90;50.50;;;;;;5031013;28;20453;-87
2022/06/23 13:25:51;;;;;;;7.47;3.87;;;35.10;48.90;;;;;;5023857;28;20969;-86
2022/06/23 13:28:37;;;;;;;6.17;4.37;;;36.10;49.40;;;;;;5023763;28;20495;-86
2022/06/23 13:31:17;;;;;;;5.63;4.10;;;37.40;47.00;;;;;;5025817;28;20473;-85
2022/06/23 13:33:51;;;;;;;6.10;3.90;;;38.40;46.20;;;;;;5023644;28;20420;-86
2022/06/23 13:36:42;;;;;;;4.77;3.80;;;38.30;46.10;;;;;;5026523;28;20723;-86
2022/06/23 13:39:30;;;;;;;5.77;4.47;;;38.20;46.40;;;;;;5027920;28;20420;-86
2022/06/23 13:42:09;;;;;;;5.90;3.20;;;37.90;44.80;;;;;;5029411;28;20470;-85
2022/06/23 13:44:53;;;;;;;7.50;3.40;;;37.50;44.50;;;;;;5032922;28;20419;-86
2022/06/23 13:47:21;;;;;;;6.80;4.57;;;37.30;45.90;;;;;;5029376;28;20467;-86
2022/06/23 13:50:24;;;;;;;7.00;4.33;;;37.10;45.60;;;;;;5029448;28;20416;-85
2022/06/23 13:52:57;;;;;;;6.07;3.80;;;37.00;44.90;;;;;;5032877;28;20474;-86
2022/06/23 13:55:28;;;;;;;6.13;3.77;;;36.70;45.30;;;;;;5031248;28;20416;-86
2022/06/23 13:57:58;;;;;;;5.80;3.60;;;36.30;46.00;;;;;;5030416;28;20432;-85
2022/06/23 14:00:54;;;;;;;6.63;4.03;;;36.10;46.80;;;;;;5025850;28;20848;-86
2022/06/23 14:03:37;;;;;;;10.40;4.27;;;36.00;47.20;;;;;;5016450;28;20468;-86
2022/06/23 14:06:10;;;;;;;4.37;3.60;;;36.00;45.90;;;;;;5029601;28;20965;-86
2022/06/23 14:09:07;;;;;;;7.73;3.73;;;36.20;46.40;;;;;;5027421;28;20451;-85